Time;durP1;ratioP1;P1;durP2;ratioP2;P2;SDS_P1;SDS_P2;PMS_P1;PMS_P2;Temp;Humidity;BMP_temperature;BMP_pressure;BME280_temperature;BME280_humidity;BME280_pressure;Samples;Min_cycle;Max_cycle;Signal;HPM_P1;HPM_P2
2023/09/02 00:01:24;;;;;;;;;;;;;;;16.28;75.27;101214.31;4196100;28;19939;-69
2023/09/02 00:03:26;;;;;;;;;;;;;;;16.25;75.48;101215.53;4197893;28;20019;-69
2023/09/02 00:05:29;;;;;;;;;;;;;;;16.24;75.19;101213.88;4198287;28;20015;-69
2023/09/02 00:07:30;;;;;;;;;;;;;;;16.24;75.33;101219.34;4197859;28;20015;-69
2023/09/02 00:09:32;;;;;;;;;;;;;;;16.23;75.50;101219.53;4197479;28;20031;-69
2023/09/02 00:11:33;;;;;;;;;;;;;;;16.21;75.21;101225.19;4197283;28;19952;-69
2023/09/02 00:13:36;;;;;;;;;;;;;;;16.19;75.37;101219.94;4198379;28;20009;-69
2023/09/02 00:15:38;;;;;;;;;;;;;;;16.18;75.58;101218.25;4197602;28;20014;-69
2023/09/02 00:17:40;;;;;;;;;;;;;;;16.18;75.43;101223.69;4197268;28;20376;-69
2023/09/02 00:19:43;;;;;;;;;;;;;;;16.17;75.34;101226.63;4197473;28;19974;-69
2023/09/02 00:21:46;;;;;;;;;;;;;;;16.16;75.60;101225.78;4198275;28;20235;-69
2023/09/02 00:23:47;;;;;;;;;;;;;;;16.15;75.47;101226.81;4197815;28;20023;-69
2023/09/02 00:25:49;;;;;;;;;;;;;;;16.13;75.18;101231.66;4198071;28;19932;-69
2023/09/02 00:27:52;;;;;;;;;;;;;;;16.09;74.95;101230.34;4197650;28;20094;-69
2023/09/02 00:29:54;;;;;;;;;;;;;;;16.06;75.07;101232.66;4197472;28;20596;-69
2023/09/02 00:31:56;;;;;;;;;;;;;;;16.02;75.57;101234.94;4197545;28;20031;-69
2023/09/02 00:33:58;;;;;;;;;;;;;;;16.01;75.67;101231.34;4197642;28;20029;-69
2023/09/02 00:36:00;;;;;;;;;;;;;;;16.01;75.66;101238.69;4197298;28;20007;-69
2023/09/02 00:38:03;;;;;;;;;;;;;;;16.01;75.67;101230.53;4196583;28;20024;-69
2023/09/02 00:40:06;;;;;;;;;;;;;;;16.00;75.39;101226.97;4197048;28;20447;-69
2023/09/02 00:42:09;;;;;;;;;;;;;;;15.99;75.58;101229.91;4204713;28;20027;-69
2023/09/02 00:44:10;;;;;;;;;;;;;;;15.98;75.63;101228.22;4195892;28;20370;-69
2023/09/02 00:46:12;;;;;;;;;;;;;;;15.97;75.52;101231.97;4197659;28;19928;-69
2023/09/02 00:48:13;;;;;;;;;;;;;;;15.95;75.37;101232.16;4197111;28;20443;-69
2023/09/02 00:50:15;;;;;;;;;;;;;;;15.94;75.26;101232.34;4197462;28;20019;-69
2023/09/02 00:52:17;;;;;;;;;;;;;;;15.90;75.25;101234.66;4195326;28;20014;-69
2023/09/02 00:54:21;;;;;;;;;;;;;;;15.88;75.47;101230.44;4195910;28;20036;-69
2023/09/02 00:56:23;;;;;;;;;;;;;;;15.84;75.37;101232.72;4212217;28;20018;-69
2023/09/02 00:58:25;;;;;;;;;;;;;;;15.83;75.61;101237.34;4197468;28;20028;-69
2023/09/02 01:00:27;;;;;;;;;;;;;;;15.83;75.43;101236.47;4195607;28;20072;-69
2023/09/02 01:02:29;;;;;;;;;;;;;;;15.81;75.53;101236.69;4197365;28;20445;-69
2023/09/02 01:04:31;;;;;;;;;;;;;;;15.80;75.63;101236.91;4195376;28;20018;-69
2023/09/02 01:06:34;;;;;;;;;;;;;;;15.78;75.31;101228.94;4195130;28;20056;-69
2023/09/02 01:08:36;;;;;;;;;;;;;;;15.76;75.29;101230.97;4197019;28;20019;-69
2023/09/02 01:10:40;;;;;;;;;;;;;;;15.76;75.35;101230.13;4196913;28;20023;-69
2023/09/02 01:12:42;;;;;;;;;;;;;;;15.74;75.60;101234.94;4196849;28;19924;-69
2023/09/02 01:14:44;;;;;;;;;;;;;;;15.72;75.69;101229.72;4195352;28;20026;-69
2023/09/02 01:16:46;;;;;;;;;;;;;;;15.71;75.52;101236.19;4197438;28;20019;-69
2023/09/02 01:18:49;;;;;;;;;;;;;;;15.71;75.54;101236.19;4187373;28;20035;-69
2023/09/02 01:20:55;;;;;;;;;;;;;;;15.70;75.50;101236.38;4196731;28;20015;-69
2023/09/02 01:22:59;;;;;;;;;;;;;;;15.67;75.48;101238.47;4196991;28;20935;-69
2023/09/02 01:25:07;;;;;;;;;;;;;;;15.67;75.60;101241.19;4196174;28;20384;-69
2023/09/02 01:27:12;;;;;;;;;;;;;;;15.66;75.39;101242.22;4196922;28;20458;-69
2023/09/02 01:29:15;;;;;;;;;;;;;;;15.66;75.25;101244.13;4195345;28;20031;-69
2023/09/02 01:31:17;;;;;;;;;;;;;;;15.64;75.35;101240.72;4196387;28;20011;-69
2023/09/02 01:33:19;;;;;;;;;;;;;;;15.63;75.12;101245.34;4197017;28;19982;-69
2023/09/02 01:35:22;;;;;;;;;;;;;;;15.61;75.05;101247.44;4196525;28;20014;-69
2023/09/02 01:37:24;;;;;;;;;;;;;;;15.60;75.09;101247.63;4196839;28;20055;-69
2023/09/02 01:39:26;;;;;;;;;;;;;;;15.58;75.40;101255.13;4194320;28;20015;-69
2023/09/02 01:41:28;;;;;;;;;;;;;;;15.55;75.38;101245.50;4196509;28;20067;-69
2023/09/02 01:43:31;;;;;;;;;;;;;;;15.55;75.46;101253.66;4196923;28;20403;-69
2023/09/02 01:45:34;;;;;;;;;;;;;;;15.54;75.44;101260.13;4196030;28;20358;-69
2023/09/02 01:47:36;;;;;;;;;;;;;;;15.52;75.27;101255.91;4196308;28;20402;-69
2023/09/02 01:49:38;;;;;;;;;;;;;;;15.49;75.06;101258.00;4194487;28;20015;-69
2023/09/02 01:51:40;;;;;;;;;;;;;;;15.47;74.86;101257.38;4194315;28;20019;-69
2023/09/02 01:53:42;;;;;;;;;;;;;;;15.46;75.18;101263.00;4186524;28;19932;-69
2023/09/02 01:55:44;;;;;;;;;;;;;;;15.44;75.01;101268.66;4195976;28;20011;-69
2023/09/02 01:57:45;;;;;;;;;;;;;;;15.40;75.26;101272.78;4194911;28;20373;-69
2023/09/02 01:59:49;;;;;;;;;;;;;;;15.39;75.41;101267.53;4193893;28;20019;-69
2023/09/02 02:01:51;;;;;;;;;;;;;;;15.37;75.54;101269.63;4211616;28;20026;-69
2023/09/02 02:03:54;;;;;;;;;;;;;;;15.37;75.38;101272.34;4195550;28;20023;-69
2023/09/02 02:05:56;;;;;;;;;;;;;;;15.36;75.14;101276.09;4196156;28;20454;-69
2023/09/02 02:07:59;;;;;;;;;;;;;;;15.34;75.17;101278.19;4196121;28;20027;-69
2023/09/02 02:10:01;;;;;;;;;;;;;;;15.30;75.00;101284.00;4193830;28;20007;-69
2023/09/02 02:12:04;;;;;;;;;;;;;;;15.29;75.12;101290.47;4193504;28;20026;-69
2023/09/02 02:14:06;;;;;;;;;;;;;;;15.27;75.02;101280.84;4195958;28;19924;-69
2023/09/02 02:16:09;;;;;;;;;;;;;;;15.25;74.98;101294.66;4195869;28;20015;-69
2023/09/02 02:18:11;;;;;;;;;;;;;;;15.22;74.97;101283.28;4194860;28;20020;-69
2023/09/02 02:20:13;;;;;;;;;;;;;;;15.21;75.36;101292.50;4196139;28;20038;-69
2023/09/02 02:22:15;;;;;;;;;;;;;;;15.18;74.93;101291.00;4194290;28;20011;-69
2023/09/02 02:24:17;;;;;;;;;;;;;;;15.18;75.48;101293.72;4193936;28;20026;-69
2023/09/02 02:26:19;;;;;;;;;;;;;;;15.17;75.44;101292.03;4185909;28;20416;-69
2023/09/02 02:28:20;;;;;;;;;;;;;;;15.14;75.56;101290.56;4211051;28;20027;-69
2023/09/02 02:30:23;;;;;;;;;;;;;;;15.14;75.71;101290.56;4195811;28;20011;-69
2023/09/02 02:32:26;;;;;;;;;;;;;;;15.13;75.76;101288.88;4195522;28;20058;-69
2023/09/02 02:34:28;;;;;;;;;;;;;;;15.13;75.72;101290.75;4195560;28;19998;-69
2023/09/02 02:36:29;;;;;;;;;;;;;;;15.13;75.31;101298.91;4194346;28;20032;-69
2023/09/02 02:38:31;;;;;;;;;;;;;;;15.11;75.43;101293.66;4195563;28;19928;-69
2023/09/02 02:40:33;;;;;;;;;;;;;;;15.10;75.22;101300.13;4193474;28;20051;-69
2023/09/02 02:42:35;;;;;;;;;;;;;;;15.09;75.66;101295.75;4196250;28;20019;-69
2023/09/02 02:44:37;;;;;;;;;;;;;;;15.06;75.29;101301.56;4195576;28;20027;-69
2023/09/02 02:46:38;;;;;;;;;;;;;;;15.05;75.50;101302.59;4195136;28;20020;-69
2023/09/02 02:48:42;;;;;;;;;;;;;;;15.04;75.34;101300.06;4195717;28;20007;-69
2023/09/02 02:50:43;;;;;;;;;;;;;;;15.02;75.16;101303.00;4194091;28;20388;-69
2023/09/02 02:52:48;;;;;;;;;;;;;;;15.02;75.33;101305.72;4177421;28;20020;-69
2023/09/02 02:54:50;;;;;;;;;;;;;;;15.01;75.50;101303.19;4195202;28;19925;-69
2023/09/02 02:56:52;;;;;;;;;;;;;;;15.00;75.45;101301.47;4193659;28;20016;-69
2023/09/02 02:58:54;;;;;;;;;;;;;;;15.00;75.43;101309.66;4194695;28;20023;-69
2023/09/02 03:01:00;;;;;;;;;;;;;;;15.00;75.20;101306.91;4209891;28;20030;-69
2023/09/02 03:03:03;;;;;;;;;;;;;;;14.98;75.27;101301.69;4179885;28;20023;-69
2023/09/02 03:05:09;;;;;;;;;;;;;;;14.96;75.07;101304.59;4210518;28;20022;-69
2023/09/02 03:07:11;;;;;;;;;;;;;;;14.96;75.05;101309.19;4210315;28;20035;-69
2023/09/02 03:09:14;;;;;;;;;;;;;;;14.94;75.18;101303.13;4193527;28;20023;-69
2023/09/02 03:11:16;;;;;;;;;;;;;;;14.90;75.17;101302.63;4193828;28;20039;-69
2023/09/02 03:13:19;;;;;;;;;;;;;;;14.89;75.36;101306.41;4194087;28;20477;-69
2023/09/02 03:15:21;;;;;;;;;;;;;;;14.87;75.29;101310.34;4195905;28;19925;-69
2023/09/02 03:17:24;;;;;;;;;;;;;;;14.86;75.42;101309.50;4199599;28;20039;-69
2023/09/02 03:19:27;;;;;;;;;;;;;;;14.86;75.51;101311.38;4199179;28;20020;-69
2023/09/02 03:21:31;;;;;;;;;;;;;;;14.85;75.51;101301.53;4200499;28;20007;-69
2023/09/02 03:23:33;;;;;;;;;;;;;;;14.85;75.56;101309.69;4199718;28;20387;-69
2023/09/02 03:25:35;;;;;;;;;;;;;;;14.85;75.71;101320.56;4190432;28;20019;-69
2023/09/02 03:27:36;;;;;;;;;;;;;;;14.83;75.48;101315.34;4201044;28;20012;-70
2023/09/02 03:29:38;;;;;;;;;;;;;;;14.83;75.35;101317.19;4199490;28;20023;-69
2023/09/02 03:31:40;;;;;;;;;;;;;;;14.82;75.15;101318.25;4198109;28;20031;-69
2023/09/02 03:33:43;;;;;;;;;;;;;;;14.80;75.50;101325.75;4198417;28;20019;-69
2023/09/02 03:35:48;;;;;;;;;;;;;;;14.78;75.52;101315.91;4199470;28;20378;-69
2023/09/02 03:37:51;;;;;;;;;;;;;;;14.77;75.38;101322.38;4200878;28;20015;-68
2023/09/02 03:39:54;;;;;;;;;;;;;;;14.77;75.33;101319.66;4198692;28;20018;-69
2023/09/02 03:41:56;;;;;;;;;;;;;;;14.76;75.57;101323.41;4200247;28;20015;-69
2023/09/02 03:43:58;;;;;;;;;;;;;;;14.76;75.18;101325.28;4198590;28;20012;-69
2023/09/02 03:46:01;;;;;;;;;;;;;;;14.75;75.25;101329.88;4200346;28;20023;-69
2023/09/02 03:48:03;;;;;;;;;;;;;;;14.74;75.27;101328.19;4200899;28;20022;-68
2023/09/02 03:50:05;;;;;;;;;;;;;;;14.72;75.10;101335.69;4198874;28;20016;-69
2023/09/02 03:52:07;;;;;;;;;;;;;;;14.71;75.04;101335.88;4182900;28;19967;-68
2023/09/02 03:54:13;;;;;;;;;;;;;;;14.72;75.39;101334.88;4199252;28;20011;-68
2023/09/02 03:56:14;;;;;;;;;;;;;;;14.71;75.34;101344.03;4198947;28;20366;-68
2023/09/02 03:58:16;;;;;;;;;;;;;;;14.69;75.10;101338.78;4200363;28;19962;-68
2023/09/02 04:00:18;;;;;;;;;;;;;;;14.67;74.84;101345.44;4199352;28;20024;-68
2023/09/02 04:02:20;;;;;;;;;;;;;;;14.65;75.29;101333.91;4200411;28;20015;-69
2023/09/02 04:04:21;;;;;;;;;;;;;;;14.62;75.05;101340.56;4199017;28;20012;-68
2023/09/02 04:06:23;;;;;;;;;;;;;;;14.62;75.20;101339.75;4199134;28;20023;-68
2023/09/02 04:08:26;;;;;;;;;;;;;;;14.60;75.09;101338.03;4198947;28;20028;-68
2023/09/02 04:10:30;;;;;;;;;;;;;;;14.60;75.19;101337.22;4182044;28;20398;-69
2023/09/02 04:12:33;;;;;;;;;;;;;;;14.57;75.19;101337.56;4198341;28;20028;-70
2023/09/02 04:14:35;;;;;;;;;;;;;;;14.56;75.20;101339.44;4200490;28;20011;-68
2023/09/02 04:16:37;;;;;;;;;;;;;;;14.56;75.18;101344.88;4198405;28;20019;-68
2023/09/02 04:18:39;;;;;;;;;;;;;;;14.55;75.02;101342.34;4198478;28;20031;-68
2023/09/02 04:20:41;;;;;;;;;;;;;;;14.53;74.79;101347.09;4198904;28;20019;-69
2023/09/02 04:22:44;;;;;;;;;;;;;;;14.52;74.97;101350.88;4215260;28;20371;-69
2023/09/02 04:24:47;;;;;;;;;;;;;;;14.49;75.02;101345.81;4200271;28;20024;-68
2023/09/02 04:26:50;;;;;;;;;;;;;;;14.47;75.11;101351.44;4197446;28;20067;-68
2023/09/02 04:28:55;;;;;;;;;;;;;;;14.45;74.73;101348.06;4190322;28;20026;-68
2023/09/02 04:30:57;;;;;;;;;;;;;;;14.42;75.09;101356.59;4212850;28;20015;-68
2023/09/02 04:33:02;;;;;;;;;;;;;;;14.38;75.24;101356.09;4195598;28;20023;-69
2023/09/02 04:35:04;;;;;;;;;;;;;;;14.37;75.70;101357.16;4195816;28;20015;-69
2023/09/02 04:37:07;;;;;;;;;;;;;;;14.37;75.70;101357.16;4204525;28;20419;-69
2023/09/02 04:39:09;;;;;;;;;;;;;;;14.35;75.63;101359.19;4189043;28;20059;-69
2023/09/02 04:41:11;;;;;;;;;;;;;;;14.36;75.71;101360.91;4212827;28;20501;-69
2023/09/02 04:43:15;;;;;;;;;;;;;;;14.35;75.23;101355.66;4197635;28;20018;-69
2023/09/02 04:45:19;;;;;;;;;;;;;;;14.34;75.64;101362.97;4196144;28;20330;-69
2023/09/02 04:47:21;;;;;;;;;;;;;;;14.35;75.40;101361.09;4196410;28;20019;-69
2023/09/02 04:49:24;;;;;;;;;;;;;;;14.33;75.68;101368.59;4195997;28;20011;-69
2023/09/02 04:51:26;;;;;;;;;;;;;;;14.32;75.42;101367.72;4197339;28;20024;-69
2023/09/02 04:53:28;;;;;;;;;;;;;;;14.31;75.45;101366.06;4197603;28;20012;-69
2023/09/02 04:55:30;;;;;;;;;;;;;;;14.30;75.33;101369.78;4188924;28;20016;-69
2023/09/02 04:57:34;;;;;;;;;;;;;;;14.30;75.39;101382.53;4185776;28;20404;-69
2023/09/02 04:59:38;;;;;;;;;;;;;;;14.29;75.55;101384.41;4197662;28;20008;-69
2023/09/02 05:01:41;;;;;;;;;;;;;;;14.28;75.53;101388.16;4196144;28;20426;-69
2023/09/02 05:03:43;;;;;;;;;;;;;;;14.28;75.58;101390.00;4197275;28;20019;-69
2023/09/02 05:05:45;;;;;;;;;;;;;;;14.27;75.64;101386.47;4196365;28;20026;-69
2023/09/02 05:07:49;;;;;;;;;;;;;;;14.28;75.48;101396.31;4195313;28;20032;-69
2023/09/02 05:09:51;;;;;;;;;;;;;;;14.28;75.76;101393.59;4196811;28;20008;-69
2023/09/02 05:11:54;;;;;;;;;;;;;;;14.29;75.95;101392.53;4195371;28;20024;-69
2023/09/02 05:13:56;;;;;;;;;;;;;;;14.30;76.04;101404.28;4195090;28;20431;-69
2023/09/02 05:15:59;;;;;;;;;;;;;;;14.30;75.88;101393.41;4195444;28;20027;-69
2023/09/02 05:18:03;;;;;;;;;;;;;;;14.30;76.06;101401.56;4194552;28;20031;-69
2023/09/02 05:20:06;;;;;;;;;;;;;;;14.30;75.69;101398.84;4195357;28;20031;-69
2023/09/02 05:22:09;;;;;;;;;;;;;;;14.29;76.17;101397.16;4196436;28;20007;-69
2023/09/02 05:24:11;;;;;;;;;;;;;;;14.23;76.29;101402.31;4196721;28;20015;-69
2023/09/02 05:26:13;;;;;;;;;;;;;;;14.28;76.63;101409.03;4197070;28;20082;-69
2023/09/02 05:28:15;;;;;;;;;;;;;;;14.29;76.61;101405.28;4196818;28;20353;-69
2023/09/02 05:30:17;;;;;;;;;;;;;;;14.30;76.81;101418.69;4196517;28;20031;-69
2023/09/02 05:32:20;;;;;;;;;;;;;;;14.30;77.37;101423.31;4197066;28;20089;-69
2023/09/02 05:34:23;;;;;;;;;;;;;;;14.31;77.37;101422.25;4197010;28;20007;-69
2023/09/02 05:36:25;;;;;;;;;;;;;;;14.31;77.65;101420.41;4196891;28;19935;-69
2023/09/02 05:38:27;;;;;;;;;;;;;;;14.33;77.98;101423.75;4195556;28;20011;-69
2023/09/02 05:40:28;;;;;;;;;;;;;;;14.37;77.91;101426.94;4195696;28;20126;-69
2023/09/02 05:42:29;;;;;;;;;;;;;;;14.38;77.71;101428.66;4196367;28;20627;-69
2023/09/02 05:44:31;;;;;;;;;;;;;;;14.40;78.02;101427.44;4196827;28;20019;-69
2023/09/02 05:46:33;;;;;;;;;;;;;;;14.44;77.77;101435.22;4195654;28;20017;-69
2023/09/02 05:48:37;;;;;;;;;;;;;;;14.46;78.13;101433.16;4196625;28;20024;-69
2023/09/02 05:50:39;;;;;;;;;;;;;;;14.48;78.00;101433.81;4196284;28;20031;-69
2023/09/02 05:52:40;;;;;;;;;;;;;;;14.53;77.88;101443.09;4196613;28;20023;-70
2023/09/02 05:54:42;;;;;;;;;;;;;;;14.54;78.23;101433.06;4196182;28;20441;-69
2023/09/02 05:56:44;;;;;;;;;;;;;;;14.55;78.53;101435.59;4196374;28;20023;-69
2023/09/02 05:58:46;;;;;;;;;;;;;;;14.58;78.36;101440.66;4196947;28;19924;-69
2023/09/02 06:00:48;;;;;;;;;;;;;;;14.62;77.83;101443.88;4196483;28;20020;-69
2023/09/02 06:02:51;;;;;;;;;;;;;;;14.66;78.01;101447.09;4195997;28;20027;-69
2023/09/02 06:04:55;;;;;;;;;;;;;;;14.69;77.69;101452.97;4196006;28;20024;-70
2023/09/02 06:06:57;;;;;;;;;;;;;;;14.73;77.60;101458.88;4196966;28;20040;-69
2023/09/02 06:08:59;;;;;;;;;;;;;;;14.75;77.50;101457.69;4196278;28;20027;-69
2023/09/02 06:11:01;;;;;;;;;;;;;;;14.79;78.13;101458.13;4195790;28;20022;-69
2023/09/02 06:13:03;;;;;;;;;;;;;;;14.82;77.90;101456.94;4186990;28;20506;-69
2023/09/02 06:15:06;;;;;;;;;;;;;;;14.86;78.05;101458.22;4196301;28;20016;-69
2023/09/02 06:17:08;;;;;;;;;;;;;;;14.88;77.83;101457.00;4196169;28;20024;-69
2023/09/02 06:19:10;;;;;;;;;;;;;;;14.92;77.51;101460.19;4196374;28;20901;-69
2023/09/02 06:21:14;;;;;;;;;;;;;;;14.94;77.45;101452.69;4195876;28;20376;-68
2023/09/02 06:23:15;;;;;;;;;;;;;;;14.99;77.54;101460.31;4196426;28;20015;-69
2023/09/02 06:25:18;;;;;;;;;;;;;;;15.01;78.07;101459.06;4195868;28;20451;-69
2023/09/02 06:27:18;;;;;;;;;;;;;;;15.03;77.51;101464.31;4196537;28;20126;-69
2023/09/02 06:29:21;;;;;;;;;;;;;;;15.06;77.38;101464.81;4195547;28;19928;-69
2023/09/02 06:31:23;;;;;;;;;;;;;;;15.09;77.68;101452.69;4196065;28;20019;-69
2023/09/02 06:33:25;;;;;;;;;;;;;;;15.11;78.06;101454.19;4195253;28;20045;-69
2023/09/02 06:35:30;;;;;;;;;;;;;;;15.14;78.58;101458.41;4195570;28;20026;-68
2023/09/02 06:37:35;;;;;;;;;;;;;;;15.19;78.19;101463.25;4195177;28;20028;-68
2023/09/02 06:39:38;;;;;;;;;;;;;;;15.21;78.60;101461.22;4194619;28;19955;-69
2023/09/02 06:41:42;;;;;;;;;;;;;;;15.24;78.72;101466.28;4192794;28;19934;-68
2023/09/02 06:43:47;;;;;;;;;;;;;;;15.27;78.52;101460.44;4195268;28;19936;-68
2023/09/02 06:45:49;;;;;;;;;;;;;;;15.30;78.30;101468.25;4193763;28;20031;-68
2023/09/02 06:47:55;;;;;;;;;;;;;;;15.33;78.23;101470.56;4194748;28;19931;-68
2023/09/02 06:49:57;;;;;;;;;;;;;;;15.37;77.79;101480.03;4194353;28;20027;-67
2023/09/02 06:52:02;;;;;;;;;;;;;;;15.42;77.68;101487.63;4177733;28;19975;-69
2023/09/02 06:54:07;;;;;;;;;;;;;;;15.44;77.75;101480.13;4193825;28;19932;-68
2023/09/02 06:56:12;;;;;;;;;;;;;;;15.47;77.38;101480.59;4193311;28;20373;-69
2023/09/02 06:58:13;;;;;;;;;;;;;;;15.51;77.24;101489.19;4194618;28;20090;-68
2023/09/02 07:00:18;;;;;;;;;;;;;;;15.54;77.18;101493.44;4195857;28;20317;-69
2023/09/02 07:02:28;;;;;;;;;;;;;;;15.57;76.85;101498.50;4192667;28;19991;-69
2023/09/02 07:04:32;;;;;;;;;;;;;;;15.61;76.51;101492.47;4176208;28;19936;-69
2023/09/02 07:06:34;;;;;;;;;;;;;;;15.64;76.00;101491.22;4195550;28;20019;-69
2023/09/02 07:08:37;;;;;;;;;;;;;;;15.67;75.96;101497.16;4194958;28;20043;-68
2023/09/02 07:10:46;;;;;;;;;;;;;;;15.71;76.15;101499.50;4194539;28;20372;-69
2023/09/02 07:12:52;;;;;;;;;;;;;;;15.73;75.02;101495.53;4193210;28;19928;-69
2023/09/02 07:14:54;;;;;;;;;;;;;;;15.77;75.17;101498.75;4194664;28;20012;-67
2023/09/02 07:16:58;;;;;;;;;;;;;;;15.80;74.92;101503.81;4193856;28;20055;-68
2023/09/02 07:19:03;;;;;;;;;;;;;;;15.84;74.55;101510.56;4192973;28;19932;-68
2023/09/02 07:21:05;;;;;;;;;;;;;;;15.89;74.12;101504.53;4194913;28;19951;-68
2023/09/02 07:23:07;;;;;;;;;;;;;;;15.92;73.48;101506.84;4194443;28;20530;-67
2023/09/02 07:25:09;;;;;;;;;;;;;;;15.96;73.70;101505.44;4194221;28;19929;-68
2023/09/02 07:27:12;;;;;;;;;;;;;;;16.00;73.75;101493.09;4193797;28;20436;-68
2023/09/02 07:29:14;;;;;;;;;;;;;;;16.03;73.55;101503.63;4193070;28;20023;-68
2023/09/02 07:31:16;;;;;;;;;;;;;;;16.07;73.34;101502.19;4193547;28;20007;-68
2023/09/02 07:33:19;;;;;;;;;;;;;;;16.10;73.03;101515.44;4192249;28;20378;-70
2023/09/02 07:35:23;;;;;;;;;;;;;;;16.15;73.02;101512.13;4194614;28;20023;-68
2023/09/02 07:37:28;;;;;;;;;;;;;;;16.17;72.78;101505.41;4185835;28;20473;-68
2023/09/02 07:39:30;;;;;;;;;;;;;;;16.21;72.65;101514.91;4192101;28;20527;-68
2023/09/02 07:41:33;;;;;;;;;;;;;;;16.27;72.87;101517.88;4176007;28;19929;-67
2023/09/02 07:43:37;;;;;;;;;;;;;;;16.31;72.69;101519.19;4192777;28;20350;-69
2023/09/02 07:45:40;;;;;;;;;;;;;;;16.33;72.42;101519.81;4194015;28;19970;-68
2023/09/02 07:47:44;;;;;;;;;;;;;;;16.37;72.44;101523.84;4192768;28;19999;-68
2023/09/02 07:49:47;;;;;;;;;;;;;;;16.39;72.41;101533.53;4176205;28;20537;-67
2023/09/02 07:51:50;;;;;;;;;;;;;;;16.42;72.22;101536.91;4186160;28;19933;-68
2023/09/02 07:53:52;;;;;;;;;;;;;;;16.44;72.21;101524.78;4176537;28;19924;-67
2023/09/02 07:55:54;;;;;;;;;;;;;;;16.49;72.10;101532.31;4192807;28;20365;-68
2023/09/02 07:57:59;;;;;;;;;;;;;;;16.51;71.75;101533.81;4194163;28;20031;-67
2023/09/02 08:00:04;;;;;;;;;;;;;;;16.55;71.83;101532.41;4194163;28;19932;-68
2023/09/02 08:02:14;;;;;;;;;;;;;;;16.60;71.86;101544.59;4193719;28;20010;-68
2023/09/02 08:04:16;;;;;;;;;;;;;;;16.62;71.37;101543.34;4198072;28;19925;-67
2023/09/02 08:06:18;;;;;;;;;;;;;;;16.64;71.52;101544.00;4197455;28;20015;-68
2023/09/02 08:08:23;;;;;;;;;;;;;;;16.67;71.48;101537.31;4195188;28;19928;-67
2023/09/02 08:10:26;;;;;;;;;;;;;;;16.70;71.23;101545.94;4211989;28;19974;-68
2023/09/02 08:12:34;;;;;;;;;;;;;;;16.74;71.44;101547.22;4195176;28;20026;-68
2023/09/02 08:14:35;;;;;;;;;;;;;;;16.78;71.14;101546.84;4195712;28;19983;-70
2023/09/02 08:16:41;;;;;;;;;;;;;;;16.81;71.19;101550.00;4196420;28;19932;-68
2023/09/02 08:18:43;;;;;;;;;;;;;;;16.85;70.93;101555.88;4196058;28;20031;-68
2023/09/02 08:20:44;;;;;;;;;;;;;;;16.88;70.81;101548.22;4196440;28;20019;-67
2023/09/02 08:22:46;;;;;;;;;;;;;;;16.91;70.53;101553.25;4197000;28;20512;-67
2023/09/02 08:24:48;;;;;;;;;;;;;;;16.93;70.33;101556.63;4194697;28;20386;-66
2023/09/02 08:26:50;;;;;;;;;;;;;;;16.96;70.36;101558.13;4196483;28;19959;-68
2023/09/02 08:28:52;;;;;;;;;;;;;;;16.99;70.19;101559.59;4194698;28;20349;-67
2023/09/02 08:30:54;;;;;;;;;;;;;;;17.01;70.35;101563.81;4196223;28;20024;-69
2023/09/02 08:32:59;;;;;;;;;;;;;;;17.01;70.12;101554.81;4196276;28;20011;-71
2023/09/02 08:35:00;;;;;;;;;;;;;;;17.04;70.10;101562.59;4196674;28;20015;-67
2023/09/02 08:37:03;;;;;;;;;;;;;;;17.05;69.98;101566.97;4196005;28;19967;-68
2023/09/02 08:39:05;;;;;;;;;;;;;;;17.08;69.81;101566.59;4187010;28;20019;-67
2023/09/02 08:41:08;;;;;;;;;;;;;;;17.10;69.80;101567.25;4195494;28;20494;-68
2023/09/02 08:43:11;;;;;;;;;;;;;;;17.11;69.92;101567.06;4195953;28;20409;-68
2023/09/02 08:45:13;;;;;;;;;;;;;;;17.14;69.65;101564.94;4195952;28;20365;-70
2023/09/02 08:47:15;;;;;;;;;;;;;;;17.17;69.64;101567.28;4197118;28;20011;-69
2023/09/02 08:49:19;;;;;;;;;;;;;;;17.19;69.29;101571.47;4197156;28;20028;-68
2023/09/02 08:51:22;;;;;;;;;;;;;;;17.22;69.50;101573.81;4195984;28;20023;-67
2023/09/02 08:53:24;;;;;;;;;;;;;;;17.24;69.45;101574.47;4196911;28;20411;-67
2023/09/02 08:55:27;;;;;;;;;;;;;;;17.26;69.35;101572.38;4196641;28;20007;-68
2023/09/02 08:57:32;;;;;;;;;;;;;;;17.29;69.34;101573.88;4195784;28;20383;-68
2023/09/02 08:59:34;;;;;;;;;;;;;;;17.31;69.32;101577.22;4196798;28;20023;-67
2023/09/02 09:01:41;;;;;;;;;;;;;;;17.32;69.25;101576.19;4196161;28;19929;-68
2023/09/02 09:03:44;;;;;;;;;;;;;;;17.35;69.06;101577.66;4195917;28;19924;-68
2023/09/02 09:05:49;;;;;;;;;;;;;;;17.38;69.10;101589.03;4196479;28;19978;-66
2023/09/02 09:07:53;;;;;;;;;;;;;;;17.40;69.10;101578.75;4202549;28;20310;-68
2023/09/02 09:09:56;;;;;;;;;;;;;;;17.43;68.80;101583.81;4194124;28;20395;-68
2023/09/02 09:12:01;;;;;;;;;;;;;;;17.47;68.98;101586.97;4196545;28;20027;-69
2023/09/02 09:14:05;;;;;;;;;;;;;;;17.48;68.89;101584.03;4186906;28;19992;-66
2023/09/02 09:16:10;;;;;;;;;;;;;;;17.51;68.65;101581.94;4195506;28;19924;-67
2023/09/02 09:18:12;;;;;;;;;;;;;;;17.53;68.53;101580.69;4196185;28;20035;-67
2023/09/02 09:20:14;;;;;;;;;;;;;;;17.55;68.47;101585.97;4196668;28;20007;-68
2023/09/02 09:22:18;;;;;;;;;;;;;;;17.56;68.44;101579.47;4195919;28;20043;-68
2023/09/02 09:24:20;;;;;;;;;;;;;;;17.57;68.61;101589.31;4193859;28;19936;-69
2023/09/02 09:26:21;;;;;;;;;;;;;;;17.58;68.48;101589.13;4197544;28;19966;-68
2023/09/02 09:28:25;;;;;;;;;;;;;;;17.60;68.56;101581.59;4196929;28;19924;-69
2023/09/02 09:30:30;;;;;;;;;;;;;;;17.62;68.30;101595.88;4194367;28;20413;-68
2023/09/02 09:32:33;;;;;;;;;;;;;;;17.64;68.41;101588.31;4196370;28;20019;-66
2023/09/02 09:34:35;;;;;;;;;;;;;;;17.66;68.49;101593.56;4195816;28;20372;-67
2023/09/02 09:36:37;;;;;;;;;;;;;;;17.67;68.52;101592.53;4195766;28;20019;-67
2023/09/02 09:38:39;;;;;;;;;;;;;;;17.69;68.38;101584.97;4196430;28;20013;-67
2023/09/02 09:40:41;;;;;;;;;;;;;;;17.71;68.41;101588.38;4195669;28;20019;-68
2023/09/02 09:42:42;;;;;;;;;;;;;;;17.72;68.14;101592.75;4196543;28;20360;-67
2023/09/02 09:44:54;;;;;;;;;;;;;;;17.74;68.24;101585.22;4196082;28;19960;-67
2023/09/02 09:46:56;;;;;;;;;;;;;;;17.76;68.21;101593.22;4195649;28;20023;-67
2023/09/02 09:49:02;;;;;;;;;;;;;;;17.77;68.23;101593.00;4196086;28;20369;-67
2023/09/02 09:51:07;;;;;;;;;;;;;;;17.80;68.16;101594.47;4177655;28;19932;-68
2023/09/02 09:53:09;;;;;;;;;;;;;;;17.83;68.00;101597.63;4195815;28;20015;-67
2023/09/02 09:55:19;;;;;;;;;;;;;;;17.85;67.97;101597.44;4195512;28;20014;-68
2023/09/02 09:57:29;;;;;;;;;;;;;;;17.88;68.07;101593.44;4194416;28;19935;-67
2023/09/02 09:59:31;;;;;;;;;;;;;;;17.90;67.90;101597.72;4194555;28;19928;-66
2023/09/02 10:01:33;;;;;;;;;;;;;;;17.93;68.01;101591.84;4210266;28;20012;-67
2023/09/02 10:03:35;;;;;;;;;;;;;;;17.96;67.96;101596.88;4196087;28;20019;-67
2023/09/02 10:05:42;;;;;;;;;;;;;;;17.99;67.82;101596.47;4179335;28;20380;-68
2023/09/02 10:07:45;;;;;;;;;;;;;;;18.01;67.99;101593.53;4178508;28;19978;-68
2023/09/02 10:09:49;;;;;;;;;;;;;;;18.01;67.78;101597.09;4196552;28;20023;-67
2023/09/02 10:11:52;;;;;;;;;;;;;;;18.04;67.69;101590.41;4195605;28;20027;-67
2023/09/02 10:13:54;;;;;;;;;;;;;;;18.07;67.58;101600.06;4195918;28;20007;-67
2023/09/02 10:15:57;;;;;;;;;;;;;;;18.08;67.91;101586.19;4194861;28;20027;-68
2023/09/02 10:17:59;;;;;;;;;;;;;;;18.10;67.81;101591.44;4195773;28;20361;-67
2023/09/02 10:20:01;;;;;;;;;;;;;;;18.14;67.46;101596.28;4195465;28;20043;-67
2023/09/02 10:22:03;;;;;;;;;;;;;;;18.17;67.45;101592.31;4195669;28;20564;-69
2023/09/02 10:24:05;;;;;;;;;;;;;;;18.19;67.68;101592.94;4195991;28;20023;-67
2023/09/02 10:26:11;;;;;;;;;;;;;;;18.21;67.44;101598.22;4195292;28;19928;-67
2023/09/02 10:28:16;;;;;;;;;;;;;;;18.22;67.58;101598.00;4195406;28;19929;-67
2023/09/02 10:30:20;;;;;;;;;;;;;;;18.24;67.72;101598.63;4195701;28;20039;-67